createdAt,value
2022-08-26T00:00:32.512Z,0.00
2022-08-26T00:01:32.259Z,0.00
2022-08-26T00:02:32.307Z,0.00
2022-08-26T00:03:32.229Z,0.00
2022-08-26T00:04:32.235Z,0.00
2022-08-26T00:05:32.220Z,0.00
2022-08-26T00:06:32.216Z,0.00
2022-08-26T00:07:32.201Z,0.00
2022-08-26T00:08:32.212Z,0.00
2022-08-26T00:09:32.163Z,0.00
2022-08-26T00:10:32.153Z,0.00
2022-08-26T00:11:32.943Z,0.00
2022-08-26T00:12:37.498Z,0.00
2022-08-26T00:13:33.113Z,0.00
2022-08-26T00:14:32.085Z,0.00
2022-08-26T00:15:32.081Z,0.00
2022-08-26T00:16:32.137Z,0.00
2022-08-26T00:17:32.097Z,0.00
2022-08-26T00:18:38.700Z,0.00
2022-08-26T00:19:33.028Z,0.00
2022-08-26T00:20:32.954Z,0.00
2022-08-26T00:21:32.014Z,0.00
2022-08-26T00:22:31.987Z,0.00
2022-08-26T00:23:31.969Z,0.00
2022-08-26T00:24:31.957Z,0.00
2022-08-26T00:25:31.948Z,0.00
2022-08-26T00:26:31.929Z,0.00
2022-08-26T00:27:31.919Z,0.00
2022-08-26T00:28:31.895Z,0.00
2022-08-26T00:29:31.983Z,0.00
2022-08-26T00:30:31.893Z,0.00
2022-08-26T00:31:31.905Z,0.00
2022-08-26T00:32:31.852Z,0.00
2022-08-26T00:33:31.835Z,0.00
2022-08-26T00:34:31.821Z,0.00
2022-08-26T00:35:31.853Z,0.00
2022-08-26T00:36:31.804Z,0.00
2022-08-26T00:37:31.796Z,0.00
2022-08-26T00:38:31.772Z,0.00
2022-08-26T00:39:31.753Z,0.00
2022-08-26T00:40:31.837Z,0.00
2022-08-26T00:41:31.734Z,0.00
2022-08-26T00:42:31.724Z,0.00
2022-08-26T00:43:31.714Z,0.00
2022-08-26T00:44:32.687Z,0.00
2022-08-26T00:45:31.731Z,0.00
2022-08-26T00:46:31.688Z,0.00
2022-08-26T00:47:31.669Z,0.00
2022-08-26T00:48:31.814Z,0.00
2022-08-26T00:49:31.627Z,0.00
2022-08-26T00:50:31.610Z,0.00
2022-08-26T00:51:31.603Z,0.00
2022-08-26T00:52:31.589Z,0.00
2022-08-26T00:53:31.569Z,0.00
2022-08-26T00:54:31.599Z,0.00
2022-08-26T00:55:34.665Z,0.00
2022-08-26T00:56:32.540Z,0.00
2022-08-26T00:57:31.533Z,0.00
2022-08-26T00:58:31.500Z,0.00
2022-08-26T00:59:32.710Z,0.00
2022-08-26T01:00:31.481Z,0.00
2022-08-26T01:01:31.568Z,0.00
2022-08-26T01:02:31.494Z,0.00
2022-08-26T01:03:31.441Z,0.00
2022-08-26T01:04:31.448Z,0.00
2022-08-26T01:05:31.412Z,0.00
2022-08-26T01:06:31.421Z,0.00
2022-08-26T01:07:31.470Z,0.00
2022-08-26T01:08:31.369Z,0.00
2022-08-26T01:09:32.314Z,0.00
2022-08-26T01:10:31.379Z,0.00
2022-08-26T01:11:31.337Z,0.00
2022-08-26T01:12:31.309Z,0.00
2022-08-26T01:13:31.580Z,0.00
2022-08-26T01:14:31.296Z,0.00
2022-08-26T01:15:32.816Z,0.00
2022-08-26T01:16:31.348Z,0.00
2022-08-26T01:17:31.285Z,0.00
2022-08-26T01:18:31.298Z,0.00
2022-08-26T01:19:31.229Z,0.00
2022-08-26T01:20:31.223Z,0.00
2022-08-26T01:21:31.209Z,0.00
2022-08-26T01:22:31.190Z,0.00
2022-08-26T01:23:31.171Z,0.00
2022-08-26T01:24:31.185Z,0.00
2022-08-26T01:25:32.102Z,0.00
2022-08-26T01:26:31.151Z,0.00
2022-08-26T01:27:32.396Z,0.00
2022-08-26T01:28:31.102Z,0.00
2022-08-26T01:29:31.106Z,0.00
2022-08-26T01:30:31.077Z,0.00
2022-08-26T01:31:31.117Z,0.00
2022-08-26T01:32:31.048Z,0.00
2022-08-26T01:33:31.042Z,0.00
2022-08-26T01:34:32.025Z,0.00
2022-08-26T01:35:31.015Z,0.00
2022-08-26T01:36:31.001Z,0.00
2022-08-26T01:37:30.994Z,0.00
2022-08-26T01:38:30.984Z,0.00
2022-08-26T01:39:30.965Z,0.00
2022-08-26T01:40:31.009Z,0.00
2022-08-26T01:41:30.936Z,0.00
2022-08-26T01:42:30.916Z,0.00
2022-08-26T01:43:30.896Z,0.00
2022-08-26T01:44:31.837Z,0.00
2022-08-26T01:45:30.935Z,0.00
2022-08-26T01:46:30.865Z,0.00
2022-08-26T01:47:30.851Z,0.00
2022-08-26T01:48:30.830Z,0.00
2022-08-26T01:49:31.926Z,0.00
2022-08-26T01:50:30.808Z,0.00
2022-08-26T01:51:31.590Z,0.00
2022-08-26T01:52:30.777Z,0.00
2022-08-26T01:53:30.829Z,0.00
2022-08-26T01:54:30.750Z,0.00
2022-08-26T01:55:32.989Z,0.00
2022-08-26T01:56:33.408Z,0.00
2022-08-26T01:57:31.713Z,0.00
2022-08-26T01:58:30.711Z,0.00
2022-08-26T01:59:30.699Z,0.00
2022-08-26T02:00:30.688Z,0.00
2022-08-26T02:01:30.673Z,0.00
2022-08-26T02:02:30.643Z,0.00
2022-08-26T02:03:30.657Z,0.00
2022-08-26T02:04:31.047Z,0.00
2022-08-26T02:05:30.625Z,0.00
2022-08-26T02:06:30.595Z,0.00
2022-08-26T02:07:30.575Z,0.00
2022-08-26T02:08:30.583Z,0.00
2022-08-26T02:09:30.814Z,0.00
2022-08-26T02:10:30.554Z,0.00
2022-08-26T02:11:30.538Z,0.00
2022-08-26T02:12:30.526Z,0.00
2022-08-26T02:13:30.522Z,0.00
2022-08-26T02:14:30.514Z,0.00
2022-08-26T02:15:30.479Z,0.00
2022-08-26T02:16:30.494Z,0.00
2022-08-26T02:17:30.461Z,0.00
2022-08-26T02:18:30.444Z,0.00
2022-08-26T02:19:30.430Z,0.00
2022-08-26T02:20:30.458Z,0.00
2022-08-26T02:21:30.400Z,0.00
2022-08-26T02:22:30.393Z,0.00
2022-08-26T02:23:30.372Z,0.00
2022-08-26T02:24:30.362Z,0.00
2022-08-26T02:25:30.353Z,0.00
2022-08-26T02:26:30.358Z,0.00
2022-08-26T02:27:32.307Z,0.00
2022-08-26T02:28:30.323Z,0.00
2022-08-26T02:29:30.294Z,0.00
2022-08-26T02:30:30.302Z,0.00
2022-08-26T02:31:30.311Z,0.00
2022-08-26T02:32:30.249Z,0.00
2022-08-26T02:33:30.250Z,0.00
2022-08-26T02:34:31.205Z,0.00
2022-08-26T02:35:31.175Z,0.00
2022-08-26T02:36:31.138Z,0.00
2022-08-26T02:37:30.196Z,0.00
2022-08-26T02:38:30.169Z,0.00
2022-08-26T02:39:30.157Z,0.00
2022-08-26T02:40:31.144Z,0.00
2022-08-26T02:41:30.128Z,0.00
2022-08-26T02:42:30.120Z,0.00
2022-08-26T02:43:32.705Z,0.00
2022-08-26T02:44:30.089Z,0.00
2022-08-26T02:45:30.117Z,0.00
2022-08-26T02:46:30.329Z,0.00
2022-08-26T02:47:30.051Z,0.00
2022-08-26T02:48:30.992Z,0.00
2022-08-26T02:49:30.048Z,0.00
2022-08-26T02:50:30.011Z,0.00
2022-08-26T02:51:30.012Z,0.00
2022-08-26T02:52:29.981Z,0.00
2022-08-26T02:53:31.681Z,0.00
2022-08-26T02:54:29.971Z,0.00
2022-08-26T02:55:30.224Z,0.00
2022-08-26T02:56:29.932Z,0.00
2022-08-26T02:57:30.873Z,0.00
2022-08-26T02:58:29.900Z,0.00
2022-08-26T02:59:30.863Z,0.00
2022-08-26T03:00:29.934Z,0.00
2022-08-26T03:01:29.963Z,0.00
2022-08-26T03:02:29.852Z,0.00
2022-08-26T03:03:29.846Z,0.00
2022-08-26T03:04:30.814Z,0.00
2022-08-26T03:05:29.826Z,0.00
2022-08-26T03:06:29.790Z,0.00
2022-08-26T03:07:29.788Z,0.00
2022-08-26T03:08:29.768Z,0.00
2022-08-26T03:09:29.768Z,0.00
2022-08-26T03:10:29.738Z,0.00
2022-08-26T03:11:33.143Z,0.00
2022-08-26T03:12:30.664Z,0.00
2022-08-26T03:13:30.663Z,0.00
2022-08-26T03:14:29.698Z,0.00
2022-08-26T03:15:29.683Z,0.00
2022-08-26T03:16:32.306Z,0.00
2022-08-26T03:17:29.891Z,0.00
2022-08-26T03:18:29.631Z,0.00
2022-08-26T03:19:30.594Z,0.00
2022-08-26T03:20:29.622Z,0.00
2022-08-26T03:21:29.607Z,0.00
2022-08-26T03:22:29.598Z,0.00
2022-08-26T03:23:30.528Z,0.00
2022-08-26T03:24:29.575Z,0.00
2022-08-26T03:25:29.569Z,0.00
2022-08-26T03:26:29.562Z,0.00
2022-08-26T03:27:29.522Z,0.00
2022-08-26T03:28:29.505Z,0.00
2022-08-26T03:29:30.707Z,0.00
2022-08-26T03:30:29.476Z,0.00
2022-08-26T03:31:29.599Z,0.00
2022-08-26T03:32:29.445Z,0.00
2022-08-26T03:33:29.437Z,0.00
2022-08-26T03:34:29.438Z,0.00
2022-08-26T03:35:29.410Z,0.00
2022-08-26T03:36:29.389Z,0.00
2022-08-26T03:37:29.378Z,0.00
2022-08-26T03:38:29.378Z,0.00
2022-08-26T03:39:31.413Z,0.00
2022-08-26T03:40:29.381Z,0.00
2022-08-26T03:41:29.332Z,0.00
2022-08-26T03:42:29.321Z,0.00
2022-08-26T03:43:29.303Z,0.00
2022-08-26T03:44:29.325Z,0.00
2022-08-26T03:45:29.290Z,0.00
2022-08-26T03:46:29.328Z,0.00
2022-08-26T03:47:29.252Z,0.00
2022-08-26T03:48:29.232Z,0.00
2022-08-26T03:49:29.249Z,0.00
2022-08-26T03:50:29.207Z,0.00
2022-08-26T03:51:29.201Z,0.00
2022-08-26T03:52:29.183Z,0.00
2022-08-26T03:53:29.174Z,0.00
2022-08-26T03:54:29.174Z,0.00
2022-08-26T03:55:29.144Z,0.00
2022-08-26T03:56:29.125Z,0.00
2022-08-26T03:57:29.116Z,0.00
2022-08-26T03:58:29.101Z,0.00
2022-08-26T03:59:29.103Z,0.00
2022-08-26T04:00:29.084Z,0.00
2022-08-26T04:01:29.167Z,0.00
2022-08-26T04:02:29.085Z,0.00
2022-08-26T04:03:29.089Z,0.00
2022-08-26T04:04:29.038Z,0.00
2022-08-26T04:05:29.009Z,0.00
2022-08-26T04:06:28.990Z,0.00
2022-08-26T04:07:28.989Z,0.00
2022-08-26T04:08:28.969Z,5.62
2022-08-26T04:09:28.981Z,5.62
2022-08-26T04:10:29.595Z,5.62
2022-08-26T04:11:28.943Z,5.62
2022-08-26T04:12:28.944Z,5.62
2022-08-26T04:13:28.917Z,5.62
2022-08-26T04:14:28.900Z,5.62
2022-08-26T04:15:29.833Z,5.62
2022-08-26T04:16:28.922Z,11.25
2022-08-26T04:17:28.852Z,11.25
2022-08-26T04:18:33.018Z,11.25
2022-08-26T04:19:29.834Z,11.25
2022-08-26T04:20:28.813Z,11.25
2022-08-26T04:21:28.795Z,16.88
2022-08-26T04:22:29.386Z,16.88
2022-08-26T04:23:28.795Z,16.88
2022-08-26T04:24:28.763Z,16.88
2022-08-26T04:25:28.745Z,16.88
2022-08-26T04:26:28.725Z,22.50
2022-08-26T04:27:28.726Z,22.50
2022-08-26T04:28:28.696Z,22.50
2022-08-26T04:29:28.697Z,22.50
2022-08-26T04:30:28.681Z,28.12
2022-08-26T04:31:28.712Z,28.12
2022-08-26T04:32:28.650Z,28.12
2022-08-26T04:33:32.320Z,33.75
2022-08-26T04:34:28.965Z,33.75
2022-08-26T04:35:28.609Z,33.75
2022-08-26T04:36:28.599Z,39.38
2022-08-26T04:37:28.580Z,39.38
2022-08-26T04:38:28.583Z,39.38
2022-08-26T04:39:28.550Z,39.38
2022-08-26T04:40:28.585Z,45.00
2022-08-26T04:41:28.631Z,45.00
2022-08-26T04:42:28.522Z,45.00
2022-08-26T04:43:28.527Z,50.62
2022-08-26T04:44:28.501Z,50.62
2022-08-26T04:45:28.474Z,50.62
2022-08-26T04:46:28.500Z,56.25
2022-08-26T04:47:32.240Z,56.25
2022-08-26T04:48:28.564Z,56.25
2022-08-26T04:49:28.414Z,61.88
2022-08-26T04:50:29.435Z,61.88
2022-08-26T04:51:28.392Z,61.88
2022-08-26T04:52:28.385Z,61.88
2022-08-26T04:53:28.376Z,67.50
2022-08-26T04:54:28.367Z,67.50
2022-08-26T04:55:38.302Z,67.50
2022-08-26T04:56:29.338Z,73.12
2022-08-26T04:57:28.321Z,73.12
2022-08-26T04:58:28.319Z,73.12
2022-08-26T04:59:28.298Z,73.12
2022-08-26T05:00:28.285Z,78.75
2022-08-26T05:01:28.325Z,78.75
2022-08-26T05:02:28.280Z,78.75
2022-08-26T05:03:30.543Z,84.38
2022-08-26T05:04:28.255Z,84.38
2022-08-26T05:05:28.210Z,84.38
2022-08-26T05:06:28.201Z,90.00
2022-08-26T05:07:28.181Z,90.00
2022-08-26T05:08:28.181Z,90.00
2022-08-26T05:09:28.152Z,90.00
2022-08-26T05:10:28.153Z,90.00
2022-08-26T05:11:28.129Z,90.00
2022-08-26T05:12:28.122Z,95.62
2022-08-26T05:13:28.123Z,90.00
2022-08-26T05:14:28.105Z,95.62
2022-08-26T05:15:28.074Z,95.62
2022-08-26T05:16:28.099Z,95.62
2022-08-26T05:17:28.056Z,101.25
2022-08-26T05:18:28.056Z,101.25
2022-08-26T05:19:28.072Z,101.25
2022-08-26T05:20:28.023Z,106.88
2022-08-26T05:21:27.996Z,106.88
2022-08-26T05:22:27.986Z,106.88
2022-08-26T05:23:27.976Z,106.88
2022-08-26T05:24:28.047Z,112.50
2022-08-26T05:25:27.947Z,112.50
2022-08-26T05:26:27.937Z,118.12
2022-08-26T05:27:27.916Z,118.12
2022-08-26T05:28:27.919Z,123.75
2022-08-26T05:29:27.890Z,129.38
2022-08-26T05:30:27.887Z,129.38
2022-08-26T05:31:27.914Z,135.00
2022-08-26T05:32:27.856Z,140.62
2022-08-26T05:33:27.849Z,146.25
2022-08-26T05:34:30.346Z,140.62
2022-08-26T05:35:27.812Z,146.25
2022-08-26T05:36:27.807Z,146.25
2022-08-26T05:37:27.782Z,146.25
2022-08-26T05:38:30.160Z,146.25
2022-08-26T05:39:27.762Z,151.88
2022-08-26T05:40:27.819Z,151.88
2022-08-26T05:41:27.730Z,157.50
2022-08-26T05:42:28.722Z,157.50
2022-08-26T05:43:27.733Z,157.50
2022-08-26T05:44:27.704Z,157.50
2022-08-26T05:45:27.675Z,157.50
2022-08-26T05:46:27.711Z,157.50
2022-08-26T05:47:28.692Z,157.50
2022-08-26T05:48:27.657Z,163.12
2022-08-26T05:49:27.626Z,163.12
2022-08-26T05:50:27.627Z,163.12
2022-08-26T05:51:27.656Z,163.12
2022-08-26T05:52:27.607Z,163.12
2022-08-26T05:53:27.578Z,163.12
2022-08-26T05:54:27.568Z,163.12
2022-08-26T05:55:27.548Z,163.12
2022-08-26T05:56:27.724Z,163.12
2022-08-26T05:57:27.514Z,163.12
2022-08-26T05:58:27.522Z,163.12
2022-08-26T05:59:27.512Z,163.12
2022-08-26T06:00:27.547Z,163.12
2022-08-26T06:01:27.556Z,163.12
2022-08-26T06:02:27.484Z,163.12
2022-08-26T06:03:27.448Z,163.12
2022-08-26T06:04:29.597Z,163.12
2022-08-26T06:05:27.412Z,163.12
2022-08-26T06:06:28.534Z,163.12
2022-08-26T06:07:27.394Z,163.12
2022-08-26T06:08:27.383Z,168.75
2022-08-26T06:09:27.361Z,168.75
2022-08-26T06:10:34.431Z,168.75
2022-08-26T06:11:28.332Z,168.75
2022-08-26T06:12:27.356Z,174.38
2022-08-26T06:13:27.322Z,174.38
2022-08-26T06:14:27.297Z,180.00
2022-08-26T06:15:27.307Z,180.00
2022-08-26T06:16:27.296Z,185.62
2022-08-26T06:17:27.256Z,185.62
2022-08-26T06:18:27.248Z,191.25
2022-08-26T06:19:32.723Z,191.25
2022-08-26T06:20:28.239Z,191.25
2022-08-26T06:21:27.198Z,191.25
2022-08-26T06:22:27.203Z,196.88
2022-08-26T06:23:27.180Z,196.88
2022-08-26T06:24:27.519Z,196.88
2022-08-26T06:25:27.151Z,202.50
2022-08-26T06:26:27.140Z,202.50
2022-08-26T06:27:30.654Z,202.50
2022-08-26T06:28:28.141Z,202.50
2022-08-26T06:29:27.092Z,202.50
2022-08-26T06:30:27.082Z,202.50
2022-08-26T06:31:27.114Z,208.12
2022-08-26T06:32:28.154Z,208.12
2022-08-26T06:33:27.048Z,208.12
2022-08-26T06:34:30.579Z,202.50
2022-08-26T06:35:27.973Z,202.50
2022-08-26T06:36:27.005Z,202.50
2022-08-26T06:37:26.999Z,202.50
2022-08-26T06:38:27.016Z,202.50
2022-08-26T06:39:26.996Z,196.88
2022-08-26T06:40:27.100Z,196.88
2022-08-26T06:41:26.926Z,196.88
2022-08-26T06:42:26.937Z,196.88
2022-08-26T06:43:26.938Z,196.88
2022-08-26T06:44:26.962Z,196.88
2022-08-26T06:45:26.874Z,196.88
2022-08-26T06:46:26.916Z,202.50
2022-08-26T06:47:26.903Z,202.50
2022-08-26T06:48:26.852Z,202.50
2022-08-26T06:49:27.782Z,208.12
2022-08-26T06:50:26.830Z,208.12
2022-08-26T06:51:26.840Z,208.12
2022-08-26T06:52:26.790Z,208.12
2022-08-26T06:53:26.781Z,208.12
2022-08-26T06:54:26.823Z,213.75
2022-08-26T06:55:26.969Z,213.75
2022-08-26T06:56:27.702Z,213.75
2022-08-26T06:57:26.732Z,208.12
2022-08-26T06:58:26.733Z,213.75
2022-08-26T06:59:26.713Z,213.75
2022-08-26T07:00:26.704Z,213.75
2022-08-26T07:01:26.716Z,219.38
2022-08-26T07:02:28.614Z,219.38
2022-08-26T07:03:26.652Z,225.00
2022-08-26T07:04:27.906Z,219.38
2022-08-26T07:05:26.616Z,213.75
2022-08-26T07:06:26.606Z,213.75
2022-08-26T07:07:26.631Z,213.75
2022-08-26T07:08:26.745Z,208.12
2022-08-26T07:09:26.587Z,208.12
2022-08-26T07:10:26.558Z,208.12
2022-08-26T07:11:26.536Z,213.75
2022-08-26T07:12:26.525Z,213.75
2022-08-26T07:13:30.751Z,213.75
2022-08-26T07:14:26.523Z,213.75
2022-08-26T07:15:31.104Z,213.75
2022-08-26T07:16:27.522Z,213.75
2022-08-26T07:17:26.490Z,213.75
2022-08-26T07:18:26.462Z,208.12
2022-08-26T07:19:29.882Z,208.12
2022-08-26T07:20:26.423Z,208.12
2022-08-26T07:21:26.403Z,202.50
2022-08-26T07:22:26.414Z,202.50
2022-08-26T07:23:26.413Z,196.88
2022-08-26T07:24:29.059Z,196.88
2022-08-26T07:25:26.605Z,202.50
2022-08-26T07:26:26.345Z,202.50
2022-08-26T07:27:26.349Z,202.50
2022-08-26T07:28:26.347Z,202.50
2022-08-26T07:29:26.295Z,202.50
2022-08-26T07:30:26.287Z,202.50
2022-08-26T07:31:26.331Z,202.50
2022-08-26T07:32:26.266Z,208.12
2022-08-26T07:33:26.254Z,208.12
2022-08-26T07:34:26.300Z,208.12
2022-08-26T07:35:26.231Z,213.75
2022-08-26T07:36:26.209Z,219.38
2022-08-26T07:37:26.202Z,219.38
2022-08-26T07:38:26.201Z,219.38
2022-08-26T07:39:26.161Z,219.38
2022-08-26T07:40:26.276Z,213.75
2022-08-26T07:41:26.177Z,213.75
2022-08-26T07:42:26.131Z,208.12
2022-08-26T07:43:26.123Z,202.50
2022-08-26T07:44:26.102Z,202.50
2022-08-26T07:45:26.082Z,208.12
2022-08-26T07:46:27.553Z,219.38
2022-08-26T07:47:26.413Z,219.38
2022-08-26T07:48:26.072Z,219.38
2022-08-26T07:49:26.098Z,219.38
2022-08-26T07:50:49.520Z,219.38
2022-08-26T07:51:27.067Z,219.38
2022-08-26T07:52:27.227Z,219.38
2022-08-26T07:53:25.996Z,219.38
2022-08-26T07:54:27.107Z,213.75
2022-08-26T07:55:25.959Z,213.75
2022-08-26T07:56:26.903Z,208.12
2022-08-26T07:57:25.929Z,208.12
2022-08-26T07:58:25.955Z,202.50
2022-08-26T07:59:25.900Z,202.50
2022-08-26T08:00:25.899Z,202.50
2022-08-26T08:01:25.931Z,208.12
2022-08-26T08:02:25.861Z,208.12
2022-08-26T08:03:25.860Z,208.12
2022-08-26T08:04:26.705Z,213.75
2022-08-26T08:05:27.278Z,213.75
2022-08-26T08:06:27.171Z,219.38
2022-08-26T08:07:44.425Z,219.38
2022-08-26T08:08:29.209Z,219.38
2022-08-26T08:09:25.785Z,219.38
2022-08-26T08:10:25.783Z,219.38
2022-08-26T08:11:25.781Z,225.00
2022-08-26T08:12:25.755Z,230.62
2022-08-26T08:13:25.723Z,236.25
2022-08-26T08:14:25.725Z,241.88
2022-08-26T08:15:25.726Z,247.50
2022-08-26T08:16:26.039Z,253.12
2022-08-26T08:17:25.672Z,253.12
2022-08-26T08:18:25.674Z,258.75
2022-08-26T08:19:28.376Z,258.75
2022-08-26T08:20:26.638Z,258.75
2022-08-26T08:21:25.607Z,264.38
2022-08-26T08:22:25.598Z,258.75
2022-08-26T08:23:25.625Z,264.38
2022-08-26T08:24:25.579Z,270.00
2022-08-26T08:25:25.575Z,275.62
2022-08-26T08:26:25.552Z,275.62
2022-08-26T08:27:25.529Z,281.25
2022-08-26T08:28:25.540Z,281.25
2022-08-26T08:29:25.511Z,281.25
2022-08-26T08:30:25.491Z,281.25
2022-08-26T08:31:54.548Z,281.25
2022-08-26T08:32:26.502Z,275.62
2022-08-26T08:33:25.452Z,275.62
2022-08-26T08:34:25.737Z,270.00
2022-08-26T08:35:25.448Z,270.00
2022-08-26T08:36:25.419Z,270.00
2022-08-26T08:37:26.434Z,264.38
2022-08-26T08:38:25.394Z,264.38
2022-08-26T08:39:25.375Z,258.75
2022-08-26T08:40:25.389Z,258.75
2022-08-26T08:41:25.370Z,253.12
2022-08-26T08:42:25.358Z,253.12
2022-08-26T08:43:25.316Z,253.12
2022-08-26T08:45:25.297Z,253.12
2022-08-26T08:46:25.306Z,253.12
2022-08-26T08:47:25.279Z,253.12
2022-08-26T08:48:27.686Z,253.12
2022-08-26T08:49:25.547Z,253.12
2022-08-26T08:50:25.230Z,253.12
2022-08-26T08:51:25.220Z,253.12
2022-08-26T08:52:25.210Z,247.50
2022-08-26T08:53:25.202Z,247.50
2022-08-26T08:54:25.192Z,247.50
2022-08-26T08:55:25.172Z,247.50
2022-08-26T08:56:25.173Z,253.12
2022-08-26T08:57:25.162Z,253.12
2022-08-26T08:58:25.153Z,258.75
2022-08-26T08:59:25.114Z,253.12
2022-08-26T09:00:30.466Z,253.12
2022-08-26T09:01:26.125Z,225.00
2022-08-26T09:02:25.131Z,225.00
2022-08-26T09:03:25.106Z,219.38
2022-08-26T09:04:25.053Z,219.38
2022-08-26T09:05:25.178Z,219.38
2022-08-26T09:06:25.966Z,236.25
2022-08-26T09:07:25.024Z,241.88
2022-08-26T09:08:27.517Z,219.38
2022-08-26T09:09:24.988Z,213.75
2022-08-26T09:10:24.990Z,230.62
2022-08-26T09:11:24.968Z,219.38
2022-08-26T09:12:29.416Z,230.62
2022-08-26T09:13:27.203Z,208.12
2022-08-26T09:14:24.930Z,208.12
2022-08-26T09:15:26.387Z,202.50
2022-08-26T09:16:24.960Z,202.50
2022-08-26T09:17:24.891Z,208.12
2022-08-26T09:18:24.871Z,208.12
2022-08-26T09:19:24.856Z,225.00
2022-08-26T09:20:24.864Z,253.12
2022-08-26T09:21:25.139Z,258.75
2022-08-26T09:22:24.834Z,258.75
2022-08-26T09:23:25.191Z,258.75
2022-08-26T09:24:28.840Z,258.75
2022-08-26T09:25:24.784Z,247.50
2022-08-26T09:26:27.162Z,264.38
2022-08-26T09:27:24.747Z,264.38
2022-08-26T09:28:24.734Z,247.50
2022-08-26T09:29:24.743Z,247.50
2022-08-26T09:30:24.715Z,230.62
2022-08-26T09:31:24.774Z,247.50
2022-08-26T09:32:24.816Z,264.38
2022-08-26T09:33:24.679Z,275.62
2022-08-26T09:34:24.655Z,275.62
2022-08-26T09:35:24.649Z,275.62
2022-08-26T09:36:24.750Z,275.62
2022-08-26T09:37:24.634Z,275.62
2022-08-26T09:38:24.603Z,270.00
2022-08-26T09:39:24.594Z,270.00
2022-08-26T09:40:24.646Z,270.00
2022-08-26T09:41:24.562Z,270.00
2022-08-26T09:42:24.572Z,270.00
2022-08-26T09:43:24.556Z,270.00
2022-08-26T09:44:25.514Z,270.00
2022-08-26T09:45:25.465Z,275.62
2022-08-26T09:46:24.555Z,275.62
2022-08-26T09:47:24.516Z,275.62
2022-08-26T09:48:24.511Z,275.62
2022-08-26T09:49:24.456Z,275.62
2022-08-26T09:50:28.995Z,275.62
2022-08-26T09:51:24.447Z,275.62
2022-08-26T09:52:24.691Z,275.62
2022-08-26T09:53:28.739Z,270.00
2022-08-26T09:54:25.386Z,275.62
2022-08-26T09:55:25.379Z,275.62
2022-08-26T09:56:24.360Z,275.62
2022-08-26T09:57:24.360Z,275.62
2022-08-26T09:58:24.329Z,281.25
2022-08-26T09:59:24.320Z,281.25
2022-08-26T10:00:24.301Z,281.25
2022-08-26T10:01:24.356Z,286.88
2022-08-26T10:02:24.292Z,292.50
2022-08-26T10:03:25.223Z,303.75
2022-08-26T10:04:24.351Z,303.75
2022-08-26T10:05:24.244Z,315.00
2022-08-26T10:06:24.233Z,320.62
2022-08-26T10:07:24.234Z,253.12
2022-08-26T10:08:24.204Z,253.12
2022-08-26T10:09:24.196Z,253.12
2022-08-26T10:10:24.185Z,258.75
2022-08-26T10:11:24.166Z,270.00
2022-08-26T10:12:24.175Z,275.62
2022-08-26T10:13:24.147Z,371.25
2022-08-26T10:14:24.149Z,371.25
2022-08-26T10:15:25.068Z,376.88
2022-08-26T10:16:24.130Z,382.50
2022-08-26T10:17:24.109Z,393.75
2022-08-26T10:18:24.070Z,399.38
2022-08-26T10:19:24.093Z,410.62
2022-08-26T10:20:25.082Z,421.88
2022-08-26T10:21:24.052Z,433.12
2022-08-26T10:22:24.036Z,433.12
2022-08-26T10:23:24.012Z,444.38
2022-08-26T10:24:24.027Z,444.38
2022-08-26T10:25:24.002Z,450.00
2022-08-26T10:26:23.967Z,450.00
2022-08-26T10:27:23.974Z,376.88
2022-08-26T10:28:23.944Z,376.88
2022-08-26T10:29:23.965Z,376.88
2022-08-26T10:30:23.939Z,388.12
2022-08-26T10:31:27.534Z,416.25
2022-08-26T10:32:23.991Z,382.50
2022-08-26T10:33:23.877Z,382.50
2022-08-26T10:34:23.856Z,382.50
2022-08-26T10:35:23.897Z,388.12
2022-08-26T10:36:23.847Z,472.50
2022-08-26T10:37:23.870Z,483.75
2022-08-26T10:38:23.850Z,495.00
2022-08-26T10:39:24.759Z,416.25
2022-08-26T10:40:23.829Z,500.62
2022-08-26T10:41:23.772Z,506.25
2022-08-26T10:42:23.761Z,500.62
2022-08-26T10:43:23.756Z,500.62
2022-08-26T10:44:23.740Z,500.62
2022-08-26T10:45:23.726Z,500.62
2022-08-26T10:46:23.778Z,500.62
2022-08-26T10:47:23.694Z,500.62
2022-08-26T10:48:23.684Z,500.62
2022-08-26T10:49:23.709Z,495.00
2022-08-26T10:50:23.654Z,495.00
2022-08-26T10:51:23.664Z,495.00
2022-08-26T10:52:23.626Z,495.00
2022-08-26T10:53:25.104Z,506.25
2022-08-26T10:54:23.686Z,517.50
2022-08-26T10:55:23.597Z,523.12
2022-08-26T10:56:23.588Z,523.12
2022-08-26T10:57:23.579Z,528.75
2022-08-26T10:58:26.638Z,540.00
2022-08-26T10:59:24.497Z,540.00
2022-08-26T11:00:23.528Z,545.62
2022-08-26T11:01:24.585Z,545.62
2022-08-26T11:02:25.197Z,551.25
2022-08-26T11:03:23.501Z,551.25
2022-08-26T11:04:23.534Z,551.25
2022-08-26T11:05:23.487Z,551.25
2022-08-26T11:06:23.471Z,545.62
2022-08-26T11:07:23.443Z,540.00
2022-08-26T11:08:23.433Z,551.25
2022-08-26T11:09:25.784Z,450.00
2022-08-26T11:10:24.415Z,427.50
2022-08-26T11:11:23.385Z,410.62
2022-08-26T11:12:23.366Z,438.75
2022-08-26T11:13:23.362Z,410.62
2022-08-26T11:14:26.668Z,405.00
2022-08-26T11:15:24.976Z,382.50
2022-08-26T11:16:23.353Z,365.62
2022-08-26T11:17:23.338Z,348.75
2022-08-26T11:18:23.318Z,331.88
2022-08-26T11:19:24.576Z,309.38
2022-08-26T11:20:23.809Z,275.62
2022-08-26T11:21:23.280Z,236.25
2022-08-26T11:22:24.240Z,202.50
2022-08-26T11:23:23.243Z,180.00
2022-08-26T11:24:23.220Z,168.75
2022-08-26T11:25:27.743Z,163.12
2022-08-26T11:26:37.588Z,151.88
2022-08-26T11:27:24.423Z,146.25
2022-08-26T11:28:23.164Z,146.25
2022-08-26T11:29:23.154Z,146.25
2022-08-26T11:30:24.097Z,135.00
2022-08-26T11:31:23.208Z,129.38
2022-08-26T11:32:23.115Z,129.38
2022-08-26T11:33:23.115Z,129.38
2022-08-26T11:34:23.116Z,123.75
2022-08-26T11:35:23.074Z,118.12
2022-08-26T11:36:23.065Z,123.75
2022-08-26T11:37:23.061Z,123.75
2022-08-26T11:38:23.037Z,123.75
2022-08-26T11:39:23.044Z,123.75
2022-08-26T11:40:25.013Z,123.75
2022-08-26T11:41:23.010Z,129.38
2022-08-26T11:42:22.980Z,129.38
2022-08-26T11:43:22.981Z,123.75
2022-08-26T11:44:22.982Z,118.12
2022-08-26T11:45:23.874Z,118.12
2022-08-26T11:46:22.931Z,112.50
2022-08-26T11:47:22.943Z,123.75
2022-08-26T11:48:22.912Z,129.38
2022-08-26T11:49:22.906Z,135.00
2022-08-26T11:50:22.883Z,129.38
2022-08-26T11:51:22.876Z,123.75
2022-08-26T11:52:22.922Z,118.12
2022-08-26T11:53:22.921Z,112.50
2022-08-26T11:54:35.287Z,112.50
2022-08-26T11:55:24.240Z,106.88
2022-08-26T11:56:22.807Z,106.88
2022-08-26T11:57:22.836Z,106.88
2022-08-26T11:58:23.017Z,106.88
2022-08-26T11:59:22.813Z,112.50
2022-08-26T12:00:23.642Z,112.50
2022-08-26T12:01:22.739Z,112.50
2022-08-26T12:02:22.732Z,112.50
2022-08-26T12:03:23.022Z,118.12
2022-08-26T12:04:22.825Z,118.12
2022-08-26T12:05:22.682Z,123.75
2022-08-26T12:06:23.647Z,123.75
2022-08-26T12:07:24.190Z,129.38
2022-08-26T12:08:22.641Z,129.38
2022-08-26T12:09:22.656Z,135.00
2022-08-26T12:10:22.608Z,135.00
2022-08-26T12:11:22.603Z,140.62
2022-08-26T12:12:22.593Z,146.25
2022-08-26T12:13:22.824Z,146.25
2022-08-26T12:14:22.586Z,151.88
2022-08-26T12:15:22.557Z,151.88
2022-08-26T12:16:23.518Z,146.25
2022-08-26T12:17:22.694Z,146.25
2022-08-26T12:18:29.195Z,146.25
2022-08-26T12:19:23.523Z,140.62
2022-08-26T12:20:22.487Z,140.62
2022-08-26T12:21:22.493Z,140.62
2022-08-26T12:22:22.464Z,135.00
2022-08-26T12:23:22.459Z,140.62
2022-08-26T12:24:22.439Z,140.62
2022-08-26T12:25:22.427Z,140.62
2022-08-26T12:26:22.409Z,140.62
2022-08-26T12:27:22.389Z,140.62
2022-08-26T12:28:23.212Z,151.88
2022-08-26T12:29:27.237Z,146.25
2022-08-26T12:30:23.371Z,151.88
2022-08-26T12:31:22.388Z,157.50
2022-08-26T12:32:22.331Z,157.50
2022-08-26T12:33:23.310Z,163.12
2022-08-26T12:34:22.302Z,168.75
2022-08-26T12:35:22.284Z,174.38
2022-08-26T12:36:22.273Z,180.00
2022-08-26T12:37:22.265Z,191.25
2022-08-26T12:38:22.254Z,196.88
2022-08-26T12:39:22.242Z,202.50
2022-08-26T12:40:22.248Z,202.50
2022-08-26T12:41:22.226Z,208.12
2022-08-26T12:42:22.193Z,208.12
2022-08-26T12:43:22.196Z,219.38
2022-08-26T12:44:22.166Z,219.38
2022-08-26T12:45:22.197Z,230.62
2022-08-26T12:46:22.139Z,236.25
2022-08-26T12:47:22.148Z,247.50